Time;durP1;ratioP1;P1;durP2;ratioP2;P2;SDS_P1;SDS_P2;PMS_P1;PMS_P2;Temp;Humidity;BMP_temperature;BMP_pressure;BME280_temperature;BME280_humidity;BME280_pressure;Samples;Min_cycle;Max_cycle;Signal;HPM_P1;HPM_P2
2023/06/19 00:00:39;;;;;;;10.87;7.17;;;;;;;23.47;51.83;96894.78;5051870;28;20394;-68
2023/06/19 00:03:07;;;;;;;10.20;6.68;;;;;;;23.47;51.23;96894.78;5051800;28;20420;-69
2023/06/19 00:05:35;;;;;;;8.27;6.57;;;;;;;23.44;51.79;96901.69;5051235;28;20413;-69
2023/06/19 00:08:03;;;;;;;8.85;6.57;;;;;;;23.40;52.38;96892.69;5049967;28;20455;-69
2023/06/19 00:10:29;;;;;;;9.60;6.80;;;;;;;23.38;52.27;96905.75;5051008;28;20759;-68
2023/06/19 00:12:57;;;;;;;9.38;6.20;;;;;;;23.35;52.69;96908.34;5051626;28;20417;-69
2023/06/19 00:15:23;;;;;;;9.15;6.78;;;;;;;23.29;53.15;96907.84;5051159;28;20480;-69
2023/06/19 00:17:49;;;;;;;11.67;7.13;;;;;;;23.30;52.87;96901.31;5051352;28;20412;-69
2023/06/19 00:20:17;;;;;;;10.38;6.30;;;;;;;23.23;53.03;96906.50;5051355;28;20409;-69
2023/06/19 00:22:44;;;;;;;11.18;6.72;;;;;;;23.19;53.67;96905.63;5050103;28;20409;-68
2023/06/19 00:25:10;;;;;;;7.93;6.43;;;;;;;23.21;52.57;96908.75;5051021;28;20468;-68
2023/06/19 00:27:36;;;;;;;10.40;6.80;;;;;;;23.18;52.86;96904.03;5051178;28;20413;-68
2023/06/19 00:30:08;;;;;;;8.50;6.23;;;;;;;23.11;53.25;96910.03;5051216;28;20440;-69
2023/06/19 00:32:46;;;;;;;11.00;6.10;;;;;;;23.10;53.07;96905.75;5051133;28;20701;-68
2023/06/19 00:35:14;;;;;;;9.45;5.70;;;;;;;23.08;53.47;96916.09;5050895;28;20397;-69
2023/06/19 00:37:44;;;;;;;8.52;6.25;;;;;;;23.08;53.20;96909.94;5051115;28;20405;-68
2023/06/19 00:40:16;;;;;;;8.73;6.13;;;;;;;23.06;53.32;96909.50;5051011;28;20484;-68
2023/06/19 00:42:42;;;;;;;8.60;6.05;;;;;;;23.02;53.59;96914.78;5051085;28;20484;-68
2023/06/19 00:45:10;;;;;;;8.40;6.03;;;;;;;23.01;53.35;96910.50;5050626;28;20405;-70
2023/06/19 00:47:37;;;;;;;9.05;6.07;;;;;;;22.96;53.84;96918.06;5050829;28;20441;-68
2023/06/19 00:50:07;;;;;;;7.53;5.60;;;;;;;22.93;54.35;96918.78;5050119;28;20496;-68
2023/06/19 00:52:33;;;;;;;7.97;5.80;;;;;;;22.94;54.28;96921.09;5050853;28;20398;-68
2023/06/19 00:55:00;;;;;;;7.50;5.70;;;;;;;22.89;54.52;96921.34;5050248;28;20412;-68
2023/06/19 00:57:26;;;;;;;8.50;6.38;;;;;;;22.85;54.55;96925.88;5050306;28;20894;-68
2023/06/19 00:59:52;;;;;;;9.70;6.32;;;;;;;22.85;54.58;96927.78;5049509;28;20416;-68
2023/06/19 01:02:23;;;;;;;9.45;5.65;;;;;;;22.80;55.34;96928.78;5050161;28;20405;-68
2023/06/19 01:04:51;;;;;;;11.20;6.50;;;;;;;22.80;54.51;96930.69;5050624;28;20401;-69
2023/06/19 01:07:22;;;;;;;11.13;5.97;;;;;;;22.77;54.78;96937.59;5050594;28;20500;-69
2023/06/19 01:09:52;;;;;;;9.38;6.15;;;;;;;22.80;54.45;96958.47;5050601;28;20405;-69
2023/06/19 01:12:37;;;;;;;8.70;6.30;;;;;;;22.87;53.88;96991.06;5050805;28;20401;-69
2023/06/19 01:15:08;;;;;;;11.15;6.20;;;;;;;22.93;52.87;96976.22;5050203;28;20459;-69
2023/06/19 01:17:36;;;;;;;9.02;6.00;;;;;;;22.98;52.68;96986.81;5050692;28;20400;-69
2023/06/19 01:20:10;;;;;;;11.33;6.20;;;;;;;23.03;52.31;96975.75;5050015;28;20401;-69
2023/06/19 01:22:39;;;;;;;10.68;5.50;;;;;;;23.12;52.53;96986.44;5049182;28;20474;-69
2023/06/19 01:25:07;;;;;;;9.18;5.30;;;;;;;23.28;51.75;96984.56;5049988;28;20397;-69
2023/06/19 01:27:33;;;;;;;8.30;5.45;;;;;;;23.24;52.36;96988.28;5050244;28;20414;-69
2023/06/19 01:30:01;;;;;;;6.38;4.68;;;;;;;23.21;52.63;96984.38;5050418;28;20475;-69
2023/06/19 01:32:36;;;;;;;8.90;4.70;;;;;;;23.25;52.37;96984.47;5050401;28;20398;-69
2023/06/19 01:35:05;;;;;;;7.97;4.72;;;;;;;23.22;52.41;96983.25;5050039;28;20480;-69
2023/06/19 01:37:33;;;;;;;6.30;4.43;;;;;;;;;;5050196;28;20398;-69
2023/06/19 01:40:05;;;;;;;8.50;4.55;;;;;;;23.14;53.28;97003.06;5050555;28;20409;-69
2023/06/19 01:42:34;;;;;;;7.15;4.75;;;;;;;23.20;52.90;97001.72;5050131;28;20408;-69
2023/06/19 01:45:02;;;;;;;7.55;4.45;;;;;;;23.10;53.54;97002.16;5049921;28;20889;-68
2023/06/19 01:47:29;;;;;;;6.47;4.57;;;;;;;23.05;54.39;97007.81;5050182;28;20409;-68
2023/06/19 01:49:55;;;;;;;7.80;4.85;;;;;;;;;;5050087;28;20919;-69
2023/06/19 01:52:21;;;;;;;7.60;4.93;;;;;;;23.08;54.19;97007.91;5050147;28;20405;-68
2023/06/19 01:54:47;;;;;;;6.50;4.25;;;;;;;23.12;54.48;97016.13;5049994;28;20428;-69
2023/06/19 01:57:15;;;;;;;8.63;4.72;;;;;;;23.03;54.79;97005.44;5048766;28;20490;-68
2023/06/19 01:59:41;;;;;;;6.90;4.50;;;;;;;23.06;55.51;97006.69;5050045;28;20459;-68
2023/06/19 02:02:07;;;;;;;6.63;4.10;;;;;;;23.00;55.56;96997.25;5050033;28;20492;-68
2023/06/19 02:04:34;;;;;;;4.68;4.10;;;;;;;22.96;56.22;97001.75;5049716;28;20459;-68
2023/06/19 02:07:00;;;;;;;5.40;3.90;;;;;;;22.94;56.50;96990.50;5050038;28;20437;-69
2023/06/19 02:09:26;;;;;;;6.00;4.20;;;;;;;22.93;56.55;96997.06;5049999;28;20452;-68
2023/06/19 02:11:52;;;;;;;5.70;4.53;;;;;;;22.90;56.91;96992.31;5048642;28;20425;-68
2023/06/19 02:14:20;;;;;;;9.93;4.53;;;;;;;22.84;57.14;96986.38;5049821;28;20420;-69
2023/06/19 02:16:46;;;;;;;5.82;4.43;;;;;;;22.89;57.27;96991.53;5049685;28;20394;-68
2023/06/19 02:19:12;;;;;;;6.20;4.22;;;;;;;22.82;57.88;96983.22;5049823;28;20744;-68
2023/06/19 02:21:39;;;;;;;6.72;4.18;;;;;;;22.76;58.48;96982.69;5049811;28;20429;-70
2023/06/19 02:24:06;;;;;;;5.95;4.20;;;;;;;22.74;58.51;96981.44;5049810;28;20409;-70
2023/06/19 02:26:32;;;;;;;6.03;4.53;;;;;;;22.75;58.39;96974.91;5049500;28;20814;-69
2023/06/19 02:28:58;;;;;;;7.53;4.50;;;;;;;22.70;58.60;96975.13;5050088;28;20693;-70
2023/06/19 02:31:26;;;;;;;8.27;4.05;;;;;;;22.65;59.45;96978.03;5049754;28;20459;-68
2023/06/19 02:33:52;;;;;;;7.07;4.30;;;;;;;22.61;59.49;96982.53;5053243;28;20528;-68
2023/06/19 02:36:21;;;;;;;5.07;3.60;;;;;;;22.63;59.38;96989.16;5053048;28;20722;-68
2023/06/19 02:38:47;;;;;;;6.65;4.22;;;;;;;22.63;59.26;96989.16;5053397;28;20538;-68
2023/06/19 02:41:15;;;;;;;6.07;4.03;;;;;;;22.57;59.21;96987.81;5053293;28;20850;-68
2023/06/19 02:43:42;;;;;;;4.93;3.90;;;;;;;22.53;60.00;96991.53;5053220;28;20397;-68
2023/06/19 02:46:08;;;;;;;6.15;4.00;;;;;;;22.54;60.29;96980.41;5052805;28;20427;-70
2023/06/19 02:48:36;;;;;;;6.18;4.03;;;;;;;22.54;60.72;96990.41;5053227;28;20402;-69
2023/06/19 02:51:02;;;;;;;7.40;4.03;;;;;;;22.51;61.19;96991.09;5053145;28;20415;-68
2023/06/19 02:53:28;;;;;;;7.30;4.35;;;;;;;22.46;61.36;96992.09;5053299;28;20444;-68
2023/06/19 02:55:55;;;;;;;6.93;4.43;;;;;;;22.47;61.50;97004.47;5052701;28;20404;-70
2023/06/19 02:58:21;;;;;;;5.37;4.40;;;;;;;22.47;61.03;97001.78;5052952;28;20416;-70
2023/06/19 03:00:49;;;;;;;6.22;4.43;;;;;;;22.41;61.13;97008.50;5053283;28;20405;-71
2023/06/19 03:03:15;;;;;;;5.40;4.00;;;;;;;22.33;61.78;97006.69;5052804;28;20871;-70
2023/06/19 03:05:43;;;;;;;9.55;4.38;;;;;;;22.30;62.19;97010.88;5052589;28;20412;-70
2023/06/19 03:08:09;;;;;;;7.13;4.40;;;;;;;22.28;62.49;97017.69;5052777;28;20406;-69
2023/06/19 03:10:35;;;;;;;5.43;4.55;;;;;;;22.31;62.11;97014.34;5052686;28;20921;-70
2023/06/19 03:13:01;;;;;;;5.53;4.22;;;;;;;22.23;62.54;97020.63;5052659;28;20405;-70
2023/06/19 03:15:27;;;;;;;6.32;4.05;;;;;;;22.14;63.32;97018.03;5052316;28;20420;-70
2023/06/19 03:17:54;;;;;;;6.37;3.70;;;;;;;22.26;66.70;97033.41;5052592;28;20405;-70
2023/06/19 03:20:20;;;;;;;6.68;3.95;;;;;;;22.15;70.26;97025.00;5052598;28;20447;-70
2023/06/19 03:22:48;;;;;;;8.25;4.28;;;;;;;21.95;71.75;97021.19;5052488;28;20397;-70
2023/06/19 03:25:14;;;;;;;6.70;4.10;;;;;;;21.84;75.39;97028.13;5052224;28;20397;-70
2023/06/19 03:27:40;;;;;;;6.38;4.40;;;;;;;21.65;74.19;97029.75;5052388;28;20985;-71
2023/06/19 03:30:08;;;;;;;5.38;3.95;;;;;;;21.61;76.45;97033.09;5052421;28;20484;-70
2023/06/19 03:32:34;;;;;;;6.38;3.88;;;;;;;21.54;76.93;97037.44;5052657;28;20944;-68
2023/06/19 03:35:02;;;;;;;5.57;3.50;;;;;;;21.50;76.85;97033.84;5051927;28;20848;-68
2023/06/19 03:37:28;;;;;;;5.93;4.10;;;;;;;21.41;76.87;97041.22;5052207;28;20405;-69
2023/06/19 03:39:56;;;;;;;7.82;3.85;;;;;;;21.33;76.29;97037.47;5052199;28;20488;-68
2023/06/19 03:42:22;;;;;;;5.95;3.67;;;;;;;21.44;76.41;97044.03;5052132;28;20801;-70
2023/06/19 03:44:48;;;;;;;4.68;3.45;;;;;;;21.46;76.74;97039.09;5051681;28;20397;-70
2023/06/19 03:47:16;;;;;;;6.32;3.03;;;;;;;21.51;76.19;97046.19;5051840;28;20417;-70
2023/06/19 03:49:42;;;;;;;5.07;3.28;;;;;;;21.50;76.02;97052.72;5037685;28;20890;-69
2023/06/19 03:52:09;;;;;;;5.60;3.60;;;;;;;21.45;76.15;97039.44;5032163;28;20407;-69
2023/06/19 03:54:35;;;;;;;4.03;3.30;;;;;;;21.42;76.85;97046.28;5031587;28;20407;-70
2023/06/19 03:57:04;;;;;;;4.45;3.22;;;;;;;21.41;76.56;97052.78;5031978;28;20411;-70
2023/06/19 03:59:31;;;;;;;7.25;3.28;;;;;;;21.35;75.58;97050.63;5031940;28;20403;-69
2023/06/19 04:01:57;;;;;;;9.77;3.25;;;;;;;21.31;75.93;97057.75;5031805;28;20889;-68
2023/06/19 04:04:24;;;;;;;4.10;3.05;;;;;;;21.33;76.19;97061.69;5031922;28;20499;-68
2023/06/19 04:06:50;;;;;;;5.72;3.20;;;;;;;21.48;74.70;97063.81;5031526;28;20419;-68
2023/06/19 04:09:16;;;;;;;5.18;3.45;;;;;;;21.47;75.52;97061.44;5031847;28;20403;-68
2023/06/19 04:11:42;;;;;;;4.30;3.10;;;;;;;21.45;76.43;97071.75;5031657;28;20403;-68
2023/06/19 04:14:10;;;;;;;7.28;3.38;;;;;;;21.44;76.51;97070.94;5031435;28;20402;-69
2023/06/19 04:16:36;;;;;;;5.00;3.00;;;;;;;21.37;76.79;97070.69;5031577;28;20394;-68
2023/06/19 04:19:03;;;;;;;8.07;3.30;;;;;;;21.45;76.31;97069.03;5031450;28;20423;-68
2023/06/19 04:21:29;;;;;;;4.18;3.08;;;;;;;21.42;76.47;97072.41;5031644;28;20403;-68
2023/06/19 04:23:55;;;;;;;6.97;3.40;;;;;;;21.30;77.16;97058.88;5031380;28;20399;-68
2023/06/19 04:26:21;;;;;;;4.40;3.28;;;;;;;21.35;77.44;97067.53;5031079;28;20505;-68
2023/06/19 04:28:48;;;;;;;5.25;3.25;;;;;;;21.24;77.90;97069.84;5041463;28;20408;-68
2023/06/19 04:31:18;;;;;;;8.37;4.00;;;;;;;21.29;77.93;97068.84;5051482;28;20405;-68
2023/06/19 04:33:44;;;;;;;4.70;3.20;;;;;;;21.26;78.34;97072.22;5051145;28;20398;-68
2023/06/19 04:36:11;;;;;;;4.82;3.35;;;;;;;21.27;79.35;97056.84;5050850;28;20890;-68
2023/06/19 04:38:37;;;;;;;4.30;2.95;;;;;;;21.31;79.40;97069.31;5050970;28;20444;-68
2023/06/19 04:41:03;;;;;;;4.60;2.90;;;;;;;21.35;79.51;97064.06;5047423;28;20486;-68
2023/06/19 04:43:29;;;;;;;3.88;3.08;;;;;;;21.40;79.57;97061.97;5036466;28;20411;-68
2023/06/19 04:45:55;;;;;;;4.80;3.50;;;;;;;21.45;80.04;97064.44;5033427;28;20413;-68
2023/06/19 04:48:24;;;;;;;4.60;3.00;;;;;;;21.50;80.36;97058.09;5048919;28;20538;-68
2023/06/19 04:50:51;;;;;;;4.25;3.10;;;;;;;21.57;80.52;97059.16;5050525;28;20405;-68
2023/06/19 04:53:17;;;;;;;4.93;3.33;;;;;;;21.60;80.94;97058.47;5050299;28;20401;-68
2023/06/19 04:55:43;;;;;;;4.35;3.10;;;;;;;21.60;81.70;97061.16;5048954;28;20798;-68
2023/06/19 04:58:10;;;;;;;4.38;2.97;;;;;;;21.80;79.40;97064.19;5051112;28;20898;-70
2023/06/19 05:00:36;;;;;;;3.70;3.08;;;;;;;21.74;80.18;97068.16;5050725;28;20408;-69
2023/06/19 05:03:02;;;;;;;4.65;3.08;;;;;;;21.83;79.28;97079.66;5050694;28;20444;-69
2023/06/19 05:05:32;;;;;;;5.53;2.97;;;;;;;21.93;79.51;97090.03;5050519;28;20484;-69
2023/06/19 05:07:59;;;;;;;4.10;3.00;;;;;;;22.00;79.19;97084.94;5050195;28;20871;-68
2023/06/19 05:10:25;;;;;;;4.85;3.20;;;;;;;22.01;78.69;97075.72;5050136;28;20398;-69
2023/06/19 05:12:52;;;;;;;3.97;2.95;;;;;;;22.03;79.82;97084.25;5048172;28;20579;-69
2023/06/19 05:15:18;;;;;;;4.05;2.83;;;;;;;22.08;79.96;97086.75;5042247;28;20413;-69
2023/06/19 05:17:46;;;;;;;5.63;2.90;;;;;;;22.10;80.07;97092.63;5044712;28;20982;-68
2023/06/19 05:20:12;;;;;;;5.32;2.85;;;;;;;22.20;79.03;97083.28;5046432;28;20406;-69
2023/06/19 05:22:40;;;;;;;4.00;3.20;;;;;;;22.08;78.35;97083.28;5049996;28;20990;-69
2023/06/19 05:25:09;;;;;;;4.93;2.97;;;;;;;22.13;77.83;97091.94;5049368;28;20413;-69
2023/06/19 05:27:35;;;;;;;4.82;2.90;;;;;;;21.99;78.84;97088.75;5049465;28;20984;-68
2023/06/19 05:30:02;;;;;;;4.45;3.03;;;;;;;21.95;79.57;97093.97;5050151;28;20455;-68
2023/06/19 05:32:28;;;;;;;4.70;3.05;;;;;;;21.87;79.69;97094.06;5050269;28;20486;-68
2023/06/19 05:34:54;;;;;;;4.10;3.00;;;;;;;21.85;80.42;97089.00;5043758;28;20522;-68
2023/06/19 05:37:22;;;;;;;4.93;3.15;;;;;;;21.80;81.13;97091.88;5042343;28;20407;-69
2023/06/19 05:39:49;;;;;;;4.50;3.08;;;;;;;21.90;79.87;97091.50;5046315;28;20484;-69
2023/06/19 05:42:15;;;;;;;4.20;3.05;;;;;;;21.85;81.25;97099.00;5045102;28;20496;-69
2023/06/19 05:44:42;;;;;;;4.57;3.25;;;;;;;21.89;81.84;97102.59;5031878;28;20899;-69
2023/06/19 05:47:08;;;;;;;3.63;3.10;;;;;;;21.87;82.58;97102.94;5042762;28;20423;-69
2023/06/19 05:49:34;;;;;;;4.07;2.90;;;;;;;21.94;83.29;97107.78;5039387;28;20408;-68
2023/06/19 05:52:00;;;;;;;4.57;2.90;;;;;;;21.99;83.60;97105.72;5047838;28;20762;-68
2023/06/19 05:54:27;;;;;;;5.15;3.25;;;;;;;22.11;81.80;97115.72;5044863;28;20801;-68
2023/06/19 05:56:55;;;;;;;6.38;2.83;;;;;;;22.23;80.84;97121.19;5042854;28;20450;-68
2023/06/19 05:59:21;;;;;;;3.83;3.00;;;;;;;22.21;81.20;97123.41;5035923;28;20430;-68
2023/06/19 06:01:47;;;;;;;4.05;3.00;;;;;;;22.23;81.41;97126.56;5041554;28;20403;-68
2023/06/19 06:04:14;;;;;;;3.92;3.20;;;;;;;22.25;82.75;97129.72;5034651;28;20870;-68
2023/06/19 06:06:40;;;;;;;2.90;2.53;;;;;;;22.29;83.48;97127.94;5045978;28;20570;-68
2023/06/19 06:09:09;;;;;;;4.78;3.38;;;;;;;22.23;82.59;97134.66;5049400;28;20410;-68
2023/06/19 06:11:35;;;;;;;8.83;3.20;;;;;;;22.18;83.28;97132.16;5048650;28;20405;-68
2023/06/19 06:14:03;;;;;;;4.60;3.00;;;;;;;22.23;83.72;97137.38;5053050;28;20755;-68
2023/06/19 06:16:29;;;;;;;3.85;2.53;;;;;;;22.31;83.43;97139.19;5052479;28;20455;-68
2023/06/19 06:18:55;;;;;;;3.83;2.77;;;;;;;22.39;82.50;97134.81;5052144;28;20520;-68
2023/06/19 06:21:23;;;;;;;3.78;2.90;;;;;;;22.43;82.80;97132.22;5053322;28;20430;-68
2023/06/19 06:23:49;;;;;;;4.93;3.00;;;;;;;22.60;80.89;97130.16;5053076;28;20401;-68
2023/06/19 06:26:16;;;;;;;5.97;2.90;;;;;;;22.51;80.62;97134.84;5052666;28;20421;-68
2023/06/19 06:28:42;;;;;;;4.20;2.90;;;;;;;22.59;81.53;97141.25;5053355;28;20484;-68
2023/06/19 06:31:11;;;;;;;4.43;2.78;;;;;;;22.68;80.25;97145.44;5051149;28;20821;-68
2023/06/19 06:33:37;;;;;;;4.15;2.72;;;;;;;22.78;80.13;97146.94;5053380;28;20467;-68
2023/06/19 06:36:03;;;;;;;4.60;2.97;;;;;;;22.85;80.22;97154.50;5053027;28;20455;-68
2023/06/19 06:38:29;;;;;;;6.72;3.00;;;;;;;22.89;79.74;97153.47;5053640;28;20890;-68
2023/06/19 06:40:56;;;;;;;3.63;2.80;;;;;;;22.95;79.45;97157.53;5048367;28;20428;-68
2023/06/19 06:43:22;;;;;;;4.20;2.53;;;;;;;23.22;74.78;97156.09;5053245;28;20882;-69
2023/06/19 06:45:49;;;;;;;2.83;2.50;;;;;;;23.24;76.23;97159.22;5045096;28;20914;-68
2023/06/19 06:48:17;;;;;;;5.82;2.55;;;;;;;23.25;75.05;97168.13;5046431;28;20413;-68
2023/06/19 06:50:43;;;;;;;3.03;2.58;;;;;;;23.45;72.71;97169.91;5049876;28;20689;-68
2023/06/19 06:53:09;;;;;;;4.00;2.65;;;;;;;23.34;73.82;97166.88;5037822;28;20967;-68
2023/06/19 06:55:35;;;;;;;3.88;2.20;;;;;;;23.37;72.50;97174.31;5037225;28;20409;-68
2023/06/19 06:58:02;;;;;;;3.00;2.40;;;;;;;23.50;70.73;97167.00;5034150;28;20411;-68
2023/06/19 07:00:29;;;;;;;3.80;2.70;;;;;;;23.23;72.45;97173.84;5037634;28;20460;-68
2023/06/19 07:02:55;;;;;;;3.53;2.60;;;;;;;23.30;72.00;97174.09;5036482;28;20497;-68
2023/06/19 07:05:23;;;;;;;3.70;2.42;;;;;;;23.15;72.44;97175.53;5033521;28;20423;-68
2023/06/19 07:07:49;;;;;;;3.05;2.25;;;;;;;23.08;73.23;97186.09;5046838;28;20409;-68
2023/06/19 07:10:15;;;;;;;4.68;2.60;;;;;;;23.22;72.11;97188.50;5047719;28;20416;-68
2023/06/19 07:12:45;;;;;;;2.70;2.30;;;;;;;23.14;72.63;97186.69;5052230;28;20402;-68
2023/06/19 07:15:12;;;;;;;4.47;2.40;;;;;;;23.34;71.68;97185.00;5050935;28;20524;-68
2023/06/19 07:17:38;;;;;;;3.85;2.42;;;;;;;23.50;69.76;97184.00;5049599;28;20479;-68
2023/06/19 07:20:06;;;;;;;5.28;2.92;;;;;;;23.57;69.98;97188.84;5033711;28;20472;-68
2023/06/19 07:22:35;;;;;;;2.88;2.33;;;;;;;23.58;69.46;97187.72;5032694;28;20885;-68
2023/06/19 07:25:03;;;;;;;4.10;2.47;;;;;;;23.47;70.28;97181.94;5039209;28;20405;-68
2023/06/19 07:27:29;;;;;;;3.55;2.28;;;;;;;23.50;70.64;97184.00;5051271;28;20517;-68
2023/06/19 07:29:56;;;;;;;2.53;2.33;;;;;;;23.48;70.98;97188.16;5038286;28;20409;-68
2023/06/19 07:32:22;;;;;;;4.00;2.20;;;;;;;23.65;69.85;97187.13;5038000;28;20432;-68
2023/06/19 07:34:48;;;;;;;3.33;2.22;;;;;;;23.79;69.17;97192.97;5045487;28;20440;-68
2023/06/19 07:37:17;;;;;;;3.13;2.10;;;;;;;23.96;68.22;97195.41;5037198;28;20395;-68
2023/06/19 07:39:45;;;;;;;3.05;2.20;;;;;;;23.97;67.75;97198.91;5049880;28;20448;-68
2023/06/19 07:42:12;;;;;;;4.03;2.10;;;;;;;24.16;66.05;97209.88;5043284;28;20792;-68
2023/06/19 07:44:40;;;;;;;3.03;2.00;;;;;;;24.21;65.74;97205.03;5041248;28;20859;-68
2023/06/19 07:47:06;;;;;;;2.65;2.35;;;;;;;24.19;65.64;97198.38;5041969;28;20413;-68
2023/06/19 07:49:33;;;;;;;2.63;2.22;;;;;;;24.27;64.76;97214.50;5048482;28;20956;-68
2023/06/19 07:51:59;;;;;;;3.03;2.40;;;;;;;24.27;65.13;97224.53;5034554;28;20895;-69
2023/06/19 07:54:26;;;;;;;5.38;2.70;;;;;;;24.05;66.43;97217.72;5034855;28;20944;-68
2023/06/19 07:56:53;;;;;;;3.58;2.60;;;;;;;24.17;66.10;97214.16;5043613;28;20409;-68
2023/06/19 07:59:20;;;;;;;2.80;2.40;;;;;;;24.10;66.43;97206.63;5043168;28;20898;-68
2023/06/19 08:01:48;;;;;;;3.30;2.58;;;;;;;24.26;66.59;97206.72;5044417;28;20906;-68
2023/06/19 08:04:14;;;;;;;2.72;2.53;;;;;;;24.14;67.82;97207.50;5050429;28;20902;-68
2023/06/19 08:06:42;;;;;;;4.80;2.90;;;;;;;24.36;66.21;97203.50;5049135;28;20444;-68
2023/06/19 08:09:08;;;;;;;2.90;2.43;;;;;;;24.36;65.88;97205.47;5049839;28;20842;-68
2023/06/19 08:11:37;;;;;;;4.53;2.30;;;;;;;24.15;66.42;97208.31;5050877;28;20420;-68
2023/06/19 08:14:04;;;;;;;4.13;2.30;;;;;;;24.36;65.19;97216.28;5044518;28;20508;-69
2023/06/19 08:16:30;;;;;;;3.30;2.58;;;;;;;24.19;66.17;97193.78;5049815;28;20918;-68
2023/06/19 08:18:57;;;;;;;2.83;2.23;;;;;;;24.30;65.43;97202.19;5051078;28;20401;-68
2023/06/19 08:21:23;;;;;;;3.47;2.60;;;;;;;24.35;66.65;97195.78;5043525;28;20985;-68
2023/06/19 08:23:49;;;;;;;4.85;2.78;;;;;;;24.41;65.98;97199.78;5050603;28;20484;-68
2023/06/19 08:26:15;;;;;;;5.13;2.67;;;;;;;24.42;64.98;97201.38;5042193;28;20504;-68
2023/06/19 08:28:42;;;;;;;5.63;2.75;;;;;;;24.27;65.88;97200.19;5031403;28;20888;-69
2023/06/19 08:31:09;;;;;;;4.53;2.53;;;;;;;24.15;66.89;97189.38;5035435;28;20462;-68
2023/06/19 08:33:35;;;;;;;5.50;2.97;;;;;;;24.25;65.50;97189.72;5040178;28;20415;-68
2023/06/19 08:36:02;;;;;;;2.85;2.55;;;;;;;24.16;66.83;97189.03;5031436;28;20410;-68
2023/06/19 08:38:28;;;;;;;4.90;3.07;;;;;;;24.09;67.44;97198.88;5031770;28;20403;-68
2023/06/19 08:40:55;;;;;;;3.65;2.72;;;;;;;24.05;67.45;97190.66;5043579;28;20479;-68
2023/06/19 08:43:21;;;;;;;3.40;2.55;;;;;;;24.25;66.76;97192.41;5042413;28;20417;-68
2023/06/19 08:45:59;;;;;;;3.92;2.78;;;;;;;24.32;66.82;97191.03;5042962;28;20432;-69
2023/06/19 08:48:27;;;;;;;6.22;2.83;;;;;;;24.51;66.53;97188.47;5050699;28;20505;-69
2023/06/19 08:50:55;;;;;;;3.63;2.70;;;;;;;24.65;65.44;97188.84;5044252;28;20407;-69
2023/06/19 08:53:22;;;;;;;3.88;2.58;;;;;;;24.79;65.23;97183.00;5035890;28;20526;-69
2023/06/19 08:55:50;;;;;;;2.67;2.30;;;;;;;24.96;63.90;97174.59;5044919;28;20417;-69
2023/06/19 08:58:23;;;;;;;2.55;2.20;;;;;;;24.99;63.61;97169.25;5045469;28;20395;-69
2023/06/19 09:00:50;;;;;;;2.78;2.15;;;;;;;25.12;64.47;97166.44;5047511;28;20413;-68
2023/06/19 09:03:21;;;;;;;3.05;2.58;;;;;;;25.27;64.00;97166.44;5038699;28;20413;-69
2023/06/19 09:05:50;;;;;;;5.75;2.45;;;;;;;25.40;64.74;97170.63;5040663;28;20406;-68
2023/06/19 09:08:17;;;;;;;2.20;2.00;;;;;;;25.60;63.48;97176.09;5043900;28;20503;-68
2023/06/19 09:10:53;;;;;;;3.63;2.38;;;;;;;25.97;58.35;97176.53;5042146;28;20443;-68
2023/06/19 09:13:19;;;;;;;2.75;2.35;;;;;;;25.91;59.22;97169.81;5041991;28;20935;-68
2023/06/19 09:15:45;;;;;;;2.92;2.10;;;;;;;25.98;60.38;97167.25;5033770;28;20419;-68
2023/06/19 09:18:12;;;;;;;3.40;2.30;;;;;;;26.06;59.92;97163.53;5043569;28;20487;-68
2023/06/19 09:20:44;;;;;;;3.20;2.45;;;;;;;26.03;59.56;97153.38;5035593;28;20453;-68
2023/06/19 09:23:12;;;;;;;4.00;2.47;;;;;;;26.19;59.60;97157.59;5036882;28;20419;-68
2023/06/19 09:25:45;;;;;;;2.90;1.95;;;;;;;26.35;59.19;97151.34;5048251;28;20902;-69
2023/06/19 09:28:18;;;;;;;3.13;2.20;;;;;;;26.36;60.08;97155.63;5045151;28;20415;-68
2023/06/19 09:30:56;;;;;;;4.05;2.10;;;;;;;26.41;60.92;97145.25;5046440;28;20420;-68
2023/06/19 09:33:22;;;;;;;2.97;2.10;;;;;;;26.56;61.56;97141.66;5046501;28;20490;-68
2023/06/19 09:35:50;;;;;;;4.90;2.00;;;;;;;26.81;61.05;97163.03;5038151;28;20461;-68
2023/06/19 09:38:20;;;;;;;2.40;2.20;;;;;;;26.95;60.42;97153.22;5044158;28;20405;-68
2023/06/19 09:40:48;;;;;;;2.63;2.33;;;;;;;27.13;60.10;97169.03;5046437;28;20403;-69
2023/06/19 09:43:19;;;;;;;2.63;2.42;;;;;;;27.13;56.80;97167.09;5048129;28;20878;-68
2023/06/19 09:45:48;;;;;;;3.78;2.60;;;;;;;26.83;57.75;97171.63;5052895;28;20433;-68
2023/06/19 09:48:18;;;;;;;4.47;2.40;;;;;;;26.74;59.04;97155.56;5048906;28;20421;-68
2023/06/19 09:50:47;;;;;;;3.67;2.33;;;;;;;26.77;59.92;97156.75;5038126;28;20399;-68
2023/06/19 09:53:14;;;;;;;2.63;2.20;;;;;;;26.83;60.90;97160.75;5047995;28;20406;-69
2023/06/19 09:55:42;;;;;;;2.43;2.13;;;;;;;26.90;61.55;97161.69;5043111;28;20405;-69
2023/06/19 09:58:09;;;;;;;3.90;2.42;;;;;;;27.05;56.82;97159.19;5039938;28;20403;-69
2023/06/19 10:00:37;;;;;;;3.55;2.50;;;;;;;27.03;56.95;97164.19;5049612;28;20412;-68
2023/06/19 10:03:05;;;;;;;3.63;2.60;;;;;;;26.99;59.40;97163.38;5047301;28;20401;-68
2023/06/19 10:05:31;;;;;;;3.30;2.70;;;;;;;27.18;55.78;97158.63;5040390;28;20762;-68
2023/06/19 10:07:59;;;;;;;3.10;2.60;;;;;;;27.20;57.85;97161.78;5047028;28;20501;-68
2023/06/19 10:10:27;;;;;;;2.65;2.45;;;;;;;27.35;58.61;97154.63;5051907;28;20500;-68
2023/06/19 10:12:57;;;;;;;2.53;2.33;;;;;;;27.56;59.64;97154.19;5049155;28;20763;-68
2023/06/19 10:15:25;;;;;;;4.28;2.53;;;;;;;27.72;58.67;97161.00;5047595;28;20431;-68
2023/06/19 10:17:58;;;;;;;3.60;2.60;;;;;;;27.80;57.18;97144.78;5051665;28;20413;-68
2023/06/19 10:20:31;;;;;;;4.68;2.75;;;;;;;27.80;56.92;97152.94;5048398;28;20947;-68
2023/06/19 10:23:00;;;;;;;2.75;2.45;;;;;;;27.93;57.92;97154.28;5053688;28;20408;-68
2023/06/19 10:25:30;;;;;;;3.13;2.65;;;;;;;28.09;58.45;97149.44;5053090;28;20427;-68
2023/06/19 10:27:58;;;;;;;3.50;2.78;;;;;;;28.32;59.08;97157.50;5046717;28;20413;-68
2023/06/19 10:30:24;;;;;;;5.65;3.08;;;;;;;28.36;58.17;97150.94;5053574;28;20437;-68
2023/06/19 10:32:51;;;;;;;3.83;2.95;;;;;;;28.31;58.24;97159.44;5053326;28;20409;-68
2023/06/19 10:35:24;;;;;;;3.95;2.67;;;;;;;28.21;58.35;97157.38;5053019;28;20405;-68
2023/06/19 10:37:50;;;;;;;3.00;2.53;;;;;;;28.11;58.31;97160.72;5033620;28;20904;-69
2023/06/19 10:40:17;;;;;;;3.40;2.67;;;;;;;28.12;58.90;97162.28;5033816;28;20418;-68
2023/06/19 10:42:44;;;;;;;3.03;2.70;;;;;;;28.15;59.13;97158.84;5037620;28;20926;-68
2023/06/19 10:45:13;;;;;;;3.70;2.67;;;;;;;28.24;58.94;97155.84;5051772;28;20463;-68
2023/06/19 10:47:40;;;;;;;4.05;3.05;;;;;;;28.22;58.59;97155.44;5053282;28;20816;-68
2023/06/19 10:50:11;;;;;;;4.38;2.90;;;;;;;28.20;58.63;97155.00;5049247;28;20407;-68
2023/06/19 10:52:41;;;;;;;2.72;2.47;;;;;;;28.19;59.89;97150.75;5033147;28;20443;-68
2023/06/19 10:55:09;;;;;;;4.25;2.97;;;;;;;28.24;59.39;97158.56;5033151;28;20896;-68
2023/06/19 10:57:36;;;;;;;3.70;2.47;;;;;;;28.41;60.16;97152.53;5041346;28;20421;-69
2023/06/19 11:00:12;;;;;;;3.17;2.50;;;;;;;28.62;59.72;97152.75;5049009;28;20469;-68
2023/06/19 11:02:43;;;;;;;3.40;2.90;;;;;;;28.79;57.72;97152.16;5042823;28;20818;-68
2023/06/19 11:05:10;;;;;;;3.58;2.92;;;;;;;28.78;57.59;97152.56;5037347;28;20748;-68
2023/06/19 11:07:37;;;;;;;2.97;2.47;;;;;;;28.76;58.25;97149.41;5038595;28;20488;-68
2023/06/19 11:10:05;;;;;;;3.83;2.80;;;;;;;28.77;58.03;97142.81;5052460;28;20421;-69
2023/06/19 11:12:33;;;;;;;4.13;3.20;;;;;;;28.77;57.33;97149.03;5050346;28;20473;-69
2023/06/19 11:15:02;;;;;;;2.97;2.67;;;;;;;28.95;55.54;97140.22;5052279;28;20902;-69
2023/06/19 11:17:29;;;;;;;4.75;3.05;;;;;;;29.19;51.87;97140.41;5049842;28;20426;-68
2023/06/19 11:19:59;;;;;;;4.20;2.60;;;;;;;29.00;54.36;97140.69;5033448;28;20477;-68
2023/06/19 11:22:39;;;;;;;3.60;2.90;;;;;;;29.07;56.12;97129.03;5051872;28;20463;-68
2023/06/19 11:25:08;;;;;;;3.35;2.88;;;;;;;29.18;56.15;97124.44;5052123;28;20886;-69
2023/06/19 11:27:37;;;;;;;3.40;2.83;;;;;;;29.26;55.84;97126.06;5051022;28;20452;-69
2023/06/19 11:30:07;;;;;;;4.20;2.77;;;;;;;29.31;55.51;97130.38;5050321;28;20398;-68
2023/06/19 11:32:40;;;;;;;3.20;2.90;;;;;;;29.35;55.64;97128.47;5032469;28;20438;-68
2023/06/19 11:35:11;;;;;;;3.97;3.07;;;;;;;29.43;55.87;97132.81;5044972;28;20507;-68